Time;durP1;ratioP1;P1;durP2;ratioP2;P2;SDS_P1;SDS_P2;PMS_P1;PMS_P2;Temp;Humidity;BMP_temperature;BMP_pressure;BME280_temperature;BME280_humidity;BME280_pressure;Samples;Min_cycle;Max_cycle;Signal;HPM_P1;HPM_P2
2023/02/02 00:00:56;;;;;;;15.73;5.73;;;6.00;99.90;;;;;;5060518;28;20481;-71
2023/02/02 00:03:24;;;;;;;16.33;3.77;;;6.10;99.90;;;;;;5056196;28;20536;-73
2023/02/02 00:05:56;;;;;;;16.67;3.50;;;6.10;99.90;;;;;;5057785;28;20470;-72
2023/02/02 00:08:24;;;;;;;13.93;3.33;;;6.10;99.90;;;;;;5053304;28;20500;-73
2023/02/02 00:11:01;;;;;;;12.97;4.10;;;6.00;99.90;;;;;;5068462;28;20470;-71
2023/02/02 00:13:35;;;;;;;14.57;4.20;;;6.00;99.90;;;;;;5062350;28;20466;-71
2023/02/02 00:16:41;;;;;;;15.47;3.73;;;6.00;99.90;;;;;;5064802;28;20477;-73
2023/02/02 00:19:20;;;;;;;16.03;4.00;;;6.00;99.90;;;;;;5063575;28;20489;-72
2023/02/02 00:21:51;;;;;;;14.50;4.07;;;6.00;99.90;;;;;;5057831;28;20480;-73
2023/02/02 00:24:26;;;;;;;16.27;3.60;;;6.00;99.90;;;;;;5069058;28;20523;-70
2023/02/02 00:27:00;;;;;;;11.87;3.30;;;6.00;99.90;;;;;;5071385;28;20483;-73
2023/02/02 00:29:38;;;;;;;17.27;4.17;;;6.00;99.90;;;;;;5065362;28;20579;-70
2023/02/02 00:32:06;;;;;;;12.87;4.07;;;6.00;99.90;;;;;;5066855;28;20466;-71
2023/02/02 00:34:36;;;;;;;12.77;4.17;;;6.00;99.90;;;;;;5071519;28;20469;-72
2023/02/02 00:37:09;;;;;;;14.77;4.30;;;6.10;99.90;;;;;;5072032;28;20469;-71
2023/02/02 00:39:39;;;;;;;9.87;3.37;;;6.10;99.90;;;;;;5070524;28;20480;-71
2023/02/02 00:42:13;;;;;;;8.23;3.40;;;6.10;99.90;;;;;;5071267;28;20473;-71
2023/02/02 00:47:32;;;;;;;13.23;4.73;;;6.10;99.90;;;;;;5066178;28;20475;-73
2023/02/02 00:50:02;;;;;;;11.83;3.43;;;6.10;99.90;;;;;;5070172;28;20496;-71
2023/02/02 00:52:31;;;;;;;17.27;3.57;;;6.20;99.90;;;;;;5071142;28;20481;-72
2023/02/02 00:55:01;;;;;;;11.00;2.93;;;6.20;99.90;;;;;;5068810;28;20465;-71
2023/02/02 00:57:34;;;;;;;14.43;3.77;;;6.20;99.90;;;;;;5069014;28;20469;-72
2023/02/02 01:00:06;;;;;;;10.70;3.27;;;6.10;99.90;;;;;;5066178;28;20992;-71
2023/02/02 01:02:41;;;;;;;15.60;3.70;;;6.10;99.90;;;;;;5070711;28;20472;-71
2023/02/02 01:05:15;;;;;;;11.33;3.30;;;6.10;99.90;;;;;;5069692;28;20514;-72
2023/02/02 01:07:43;;;;;;;13.50;3.70;;;6.20;99.90;;;;;;5069963;28;20519;-71
2023/02/02 01:10:14;;;;;;;14.00;4.00;;;6.10;99.90;;;;;;5069809;28;20484;-71
2023/02/02 01:12:44;;;;;;;13.30;3.53;;;6.10;99.90;;;;;;5070024;28;20474;-71
2023/02/02 01:15:15;;;;;;;13.13;3.00;;;6.10;99.90;;;;;;5069743;28;20810;-71
2023/02/02 01:17:47;;;;;;;9.90;3.10;;;6.10;99.90;;;;;;5066230;28;20508;-72
2023/02/02 01:20:20;;;;;;;9.80;4.10;;;6.10;99.90;;;;;;5067167;28;20484;-72
2023/02/02 01:22:47;;;;;;;9.47;2.80;;;6.00;99.90;;;;;;5059904;28;20469;-71
2023/02/02 01:25:19;;;;;;;13.30;3.20;;;6.00;99.90;;;;;;5071331;28;20469;-71
2023/02/02 01:27:49;;;;;;;10.83;3.60;;;6.00;99.90;;;;;;5068720;28;20472;-71
2023/02/02 01:30:17;;;;;;;11.67;3.37;;;6.00;99.90;;;;;;5070356;28;20836;-72
2023/02/02 01:32:47;;;;;;;15.33;4.10;;;6.00;99.90;;;;;;5068160;28;20477;-71
2023/02/02 01:35:17;;;;;;;13.10;3.13;;;5.90;99.90;;;;;;5067885;28;21374;-72
2023/02/02 01:37:49;;;;;;;12.87;4.80;;;5.90;99.90;;;;;;5066313;28;20507;-72
2023/02/02 01:40:17;;;;;;;10.80;3.40;;;5.90;99.90;;;;;;5070501;28;21038;-71
2023/02/02 01:42:55;;;;;;;14.57;4.00;;;5.90;99.90;;;;;;5060404;28;20499;-71
2023/02/02 01:45:28;;;;;;;11.07;3.17;;;5.90;99.90;;;;;;5066661;28;20477;-70
2023/02/02 01:48:00;;;;;;;14.10;2.90;;;5.90;99.90;;;;;;5070094;28;20483;-71
2023/02/02 01:50:31;;;;;;;15.07;4.30;;;5.90;99.90;;;;;;5068157;28;20478;-71
2023/02/02 01:53:06;;;;;;;17.60;3.33;;;5.90;99.90;;;;;;5070341;28;20539;-72
2023/02/02 01:55:39;;;;;;;12.90;3.17;;;5.90;99.90;;;;;;5070809;28;20515;-71
2023/02/02 01:58:12;;;;;;;14.40;3.00;;;5.80;99.90;;;;;;5061931;28;20903;-71
2023/02/02 02:00:54;;;;;;;11.80;3.30;;;5.80;99.90;;;;;;5070935;28;20469;-72
2023/02/02 02:03:25;;;;;;;11.90;3.33;;;5.80;99.90;;;;;;5061201;28;20473;-72
2023/02/02 02:05:56;;;;;;;11.53;3.93;;;5.80;99.90;;;;;;5070865;28;20941;-72
2023/02/02 02:08:26;;;;;;;10.07;2.60;;;5.80;99.90;;;;;;5066506;28;20741;-71
2023/02/02 02:10:56;;;;;;;6.20;2.33;;;5.80;99.90;;;;;;5068735;28;20766;-72
2023/02/02 02:16:23;;;;;;;7.10;2.87;;;5.80;99.90;;;;;;5068166;28;20977;-73
2023/02/02 02:19:04;;;;;;;5.83;1.80;;;5.80;99.90;;;;;;5075967;22;21182;-77
2023/02/02 02:28:26;;;;;;;12.20;2.33;;;5.80;99.90;;;;;;5070091;28;20457;-76
2023/02/02 02:31:27;;;;;;;7.80;2.30;;;5.80;99.90;;;;;;5054551;28;20457;-76
2023/02/02 02:34:16;;;;;;;6.40;2.37;;;5.70;99.90;;;;;;5064441;28;20477;-77
2023/02/02 02:36:56;;;;;;;7.83;2.40;;;5.70;99.90;;;;;;5059025;28;20490;-78
2023/02/02 02:39:35;;;;;;;9.87;3.27;;;5.70;99.90;;;;;;5053416;28;20482;-76
2023/02/02 02:42:12;;;;;;;12.50;3.23;;;5.60;99.90;;;;;;5053304;28;20493;-76
2023/02/02 02:44:43;;;;;;;9.90;3.00;;;5.60;99.90;;;;;;5051554;28;20466;-76
2023/02/02 02:47:12;;;;;;;9.60;2.93;;;5.60;99.90;;;;;;5052381;28;20486;-77
2023/02/02 02:49:45;;;;;;;14.27;2.97;;;5.60;99.90;;;;;;5055441;28;20887;-76
2023/02/02 02:52:13;;;;;;;16.17;3.83;;;5.50;99.90;;;;;;5054593;28;20470;-77
2023/02/02 02:54:45;;;;;;;11.00;2.80;;;5.50;99.90;;;;;;5054209;28;20466;-77
2023/02/02 02:57:34;;;;;;;12.07;3.10;;;5.50;99.90;;;;;;5054722;28;20548;-77
2023/02/02 03:00:32;;;;;;;9.90;3.60;;;5.50;99.90;;;;;;5057460;28;20482;-79
2023/02/02 03:03:09;;;;;;;6.10;2.53;;;5.50;99.90;;;;;;5055747;28;20494;-79
2023/02/02 03:05:49;;;;;;;10.27;2.60;;;5.50;99.90;;;;;;5055149;28;20470;-76
2023/02/02 03:08:24;;;;;;;18.00;3.53;;;5.60;99.90;;;;;;5052894;28;20490;-76
2023/02/02 03:10:53;;;;;;;15.80;2.90;;;5.60;99.90;;;;;;5054830;28;20465;-77
2023/02/02 03:13:22;;;;;;;12.90;2.80;;;5.60;99.90;;;;;;5043823;28;20470;-76
2023/02/02 03:15:51;;;;;;;7.83;2.43;;;5.70;99.90;;;;;;5049936;28;20466;-76
2023/02/02 03:18:23;;;;;;;12.27;2.90;;;5.70;99.90;;;;;;5050093;28;20474;-78
2023/02/02 03:21:00;;;;;;;7.37;2.30;;;5.70;99.90;;;;;;5049482;28;20917;-77
2023/02/02 03:23:37;;;;;;;10.70;2.23;;;5.70;99.90;;;;;;5054505;28;20470;-77
2023/02/02 03:26:07;;;;;;;11.10;2.37;;;5.70;99.90;;;;;;5048689;28;20473;-76
2023/02/02 03:28:37;;;;;;;6.87;2.33;;;5.80;99.90;;;;;;5051650;28;20569;-76
2023/02/02 03:31:12;;;;;;;9.10;2.10;;;5.80;99.90;;;;;;5053325;28;20470;-77
2023/02/02 03:33:47;;;;;;;7.43;2.20;;;5.80;99.90;;;;;;5056793;28;20487;-78
2023/02/02 03:36:21;;;;;;;16.17;2.57;;;5.80;99.90;;;;;;5057958;28;20473;-77
2023/02/02 03:38:49;;;;;;;12.10;2.27;;;5.80;99.90;;;;;;5052298;28;20505;-77
2023/02/02 03:41:17;;;;;;;7.57;2.30;;;5.90;99.90;;;;;;5052637;28;20470;-76
2023/02/02 03:43:50;;;;;;;6.70;2.10;;;5.90;99.90;;;;;;5050023;28;20482;-77
2023/02/02 03:46:20;;;;;;;6.70;2.10;;;5.80;99.90;;;;;;5052572;28;20467;-78
2023/02/02 03:48:48;;;;;;;12.33;2.83;;;5.80;99.90;;;;;;5058546;28;20482;-76
2023/02/02 03:51:17;;;;;;;8.83;2.93;;;5.80;99.90;;;;;;5052577;28;20489;-78
2023/02/02 03:53:50;;;;;;;6.87;2.23;;;5.80;99.90;;;;;;5057497;28;20479;-78
2023/02/02 03:56:28;;;;;;;10.90;2.17;;;5.80;99.90;;;;;;5057255;28;20921;-77
2023/02/02 03:59:02;;;;;;;10.20;2.87;;;5.80;99.90;;;;;;5053996;28;20528;-79
2023/02/02 04:01:31;;;;;;;9.50;2.10;;;5.80;99.90;;;;;;5055398;28;20973;-76
2023/02/02 04:04:02;;;;;;;6.67;1.90;;;5.80;99.90;;;;;;5048866;28;20467;-77
2023/02/02 04:06:36;;;;;;;10.47;2.77;;;5.80;99.90;;;;;;5057071;28;20467;-77
2023/02/02 04:09:11;;;;;;;8.40;2.10;;;5.70;99.90;;;;;;5063169;28;20478;-79
2023/02/02 04:11:45;;;;;;;10.40;1.87;;;5.70;99.90;;;;;;5057759;28;20490;-76
2023/02/02 04:14:13;;;;;;;6.87;1.80;;;5.70;99.90;;;;;;5051426;28;20474;-78
2023/02/02 04:16:41;;;;;;;4.07;1.73;;;5.70;99.90;;;;;;5048647;28;20479;-77
2023/02/02 04:19:11;;;;;;;6.80;1.80;;;5.70;99.90;;;;;;5057930;28;20497;-77
2023/02/02 04:21:43;;;;;;;7.83;2.30;;;5.70;99.90;;;;;;5050279;28;20470;-77
2023/02/02 04:24:12;;;;;;;6.77;1.90;;;5.70;99.90;;;;;;5058603;28;20564;-76
2023/02/02 04:26:41;;;;;;;9.27;2.43;;;5.70;99.90;;;;;;5059069;28;20466;-77
2023/02/02 04:29:19;;;;;;;4.90;1.93;;;5.70;99.90;;;;;;5051552;28;20483;-76
2023/02/02 04:31:47;;;;;;;5.37;1.40;;;5.70;99.90;;;;;;5052768;28;20469;-76
2023/02/02 04:34:16;;;;;;;5.50;1.70;;;5.70;99.90;;;;;;5060481;28;20466;-76
2023/02/02 04:37:03;;;;;;;3.13;1.47;;;5.70;99.90;;;;;;5050220;28;20470;-77
2023/02/02 04:39:31;;;;;;;6.13;1.40;;;5.60;99.90;;;;;;5045260;28;20839;-78
2023/02/02 04:42:01;;;;;;;5.03;1.50;;;5.60;99.90;;;;;;5059774;28;20470;-77
2023/02/02 04:44:29;;;;;;;7.87;1.90;;;5.60;99.90;;;;;;5054265;28;20471;-77
2023/02/02 04:47:02;;;;;;;6.13;1.77;;;5.50;99.90;;;;;;5051076;28;20465;-75
2023/02/02 04:49:30;;;;;;;7.13;2.33;;;5.50;99.90;;;;;;5057171;28;20775;-76
2023/02/02 04:51:59;;;;;;;8.97;1.90;;;5.50;99.90;;;;;;5053988;28;20484;-77
2023/02/02 04:54:37;;;;;;;6.07;2.00;;;5.40;99.90;;;;;;5052915;28;20473;-77
2023/02/02 04:57:05;;;;;;;7.30;2.20;;;5.40;99.90;;;;;;5051629;28;20471;-78
2023/02/02 04:59:36;;;;;;;10.50;3.13;;;5.40;99.90;;;;;;5055472;28;20506;-78
2023/02/02 05:02:15;;;;;;;9.47;2.53;;;5.50;99.90;;;;;;5057131;28;20470;-76
2023/02/02 05:04:48;;;;;;;10.40;2.67;;;5.40;99.90;;;;;;5057794;28;20463;-76
2023/02/02 05:07:23;;;;;;;8.37;1.90;;;5.40;99.90;;;;;;5058430;28;20486;-78
2023/02/02 05:09:52;;;;;;;9.23;2.20;;;5.40;99.90;;;;;;5057506;28;21019;-77
2023/02/02 05:12:24;;;;;;;12.07;4.43;;;5.50;99.90;;;;;;5053939;28;20532;-76
2023/02/02 05:14:59;;;;;;;10.07;2.00;;;5.50;99.90;;;;;;5057422;28;20544;-76
2023/02/02 05:17:32;;;;;;;8.27;2.33;;;5.50;99.90;;;;;;5059041;28;20486;-76
2023/02/02 05:20:00;;;;;;;7.00;2.63;;;5.50;99.90;;;;;;5053683;28;20496;-76
2023/02/02 05:22:29;;;;;;;10.33;2.47;;;5.50;99.90;;;;;;5060953;28;20475;-76
2023/02/02 05:24:57;;;;;;;7.30;2.00;;;5.50;99.90;;;;;;5060866;28;20474;-76
2023/02/02 05:27:31;;;;;;;9.90;2.77;;;5.50;99.90;;;;;;5054942;28;21089;-76
2023/02/02 05:30:02;;;;;;;7.90;2.53;;;5.50;99.90;;;;;;5047164;28;20487;-76
2023/02/02 05:32:35;;;;;;;8.40;1.87;;;5.40;99.90;;;;;;5045327;28;20482;-76
2023/02/02 05:35:06;;;;;;;6.87;1.77;;;5.40;99.90;;;;;;5054712;28;20470;-76
2023/02/02 05:37:44;;;;;;;5.67;1.70;;;5.40;99.90;;;;;;5060212;28;20459;-77
2023/02/02 05:40:12;;;;;;;6.40;1.80;;;5.30;99.90;;;;;;5053848;28;20497;-76
2023/02/02 05:42:43;;;;;;;9.93;2.67;;;5.30;99.90;;;;;;5049095;28;20501;-76
2023/02/02 05:45:13;;;;;;;9.57;2.50;;;5.30;99.90;;;;;;5055141;28;20567;-77
2023/02/02 05:47:43;;;;;;;10.70;3.10;;;5.30;99.90;;;;;;5057913;28;20474;-77
2023/02/02 05:50:13;;;;;;;8.97;3.13;;;5.30;99.90;;;;;;5057751;28;20853;-78
2023/02/02 05:52:52;;;;;;;12.80;2.80;;;5.30;99.90;;;;;;5049544;28;20881;-76
2023/02/02 05:55:22;;;;;;;11.77;2.90;;;5.30;99.90;;;;;;5054875;28;20474;-76
2023/02/02 05:57:57;;;;;;;12.30;2.97;;;5.30;99.90;;;;;;5048814;28;20470;-78
2023/02/02 06:00:25;;;;;;;12.00;3.33;;;5.30;99.90;;;;;;5038496;28;20604;-76
2023/02/02 06:02:53;;;;;;;14.10;2.83;;;5.40;99.90;;;;;;5047861;28;20471;-79
2023/02/02 06:05:23;;;;;;;10.17;2.90;;;5.40;99.90;;;;;;5053460;28;20467;-78
2023/02/02 06:07:53;;;;;;;10.10;3.00;;;5.40;99.90;;;;;;5059676;28;20470;-76
2023/02/02 06:10:25;;;;;;;11.60;3.93;;;5.40;99.90;;;;;;5054782;28;20482;-77
2023/02/02 06:12:55;;;;;;;14.50;3.90;;;5.40;99.90;;;;;;5045684;28;20467;-76
2023/02/02 06:15:27;;;;;;;10.50;3.00;;;5.40;99.90;;;;;;5046693;28;20482;-78
2023/02/02 06:17:57;;;;;;;11.07;2.97;;;5.40;99.90;;;;;;5048795;28;20917;-76
2023/02/02 06:20:28;;;;;;;12.57;3.80;;;5.40;99.90;;;;;;5054342;28;20553;-77
2023/02/02 06:23:02;;;;;;;16.43;3.13;;;5.40;99.90;;;;;;5055104;28;20556;-76
2023/02/02 06:25:30;;;;;;;19.00;4.30;;;5.40;99.90;;;;;;5048935;28;20477;-76
2023/02/02 06:28:01;;;;;;;10.53;3.17;;;5.40;99.90;;;;;;5055125;28;20467;-76
2023/02/02 06:30:38;;;;;;;14.10;3.10;;;5.40;99.90;;;;;;5055814;28;20498;-75
2023/02/02 06:33:13;;;;;;;10.57;2.93;;;5.50;99.90;;;;;;5053264;28;20467;-76
2023/02/02 06:35:53;;;;;;;14.27;3.10;;;5.50;99.90;;;;;;5056240;28;20473;-77
2023/02/02 06:38:24;;;;;;;11.73;2.93;;;5.50;99.90;;;;;;5064510;28;20478;-77
2023/02/02 06:40:54;;;;;;;19.63;3.83;;;5.50;99.90;;;;;;5060959;28;20498;-77
2023/02/02 06:43:25;;;;;;;16.23;3.87;;;5.50;99.90;;;;;;5058397;28;20497;-76
2023/02/02 06:45:53;;;;;;;13.57;3.57;;;5.50;99.90;;;;;;5051525;28;20553;-75
2023/02/02 06:48:26;;;;;;;17.87;3.90;;;5.50;99.90;;;;;;5060358;28;20514;-76
2023/02/02 06:50:57;;;;;;;12.53;3.77;;;5.50;99.90;;;;;;5068992;28;20489;-76
2023/02/02 06:53:27;;;;;;;10.70;3.27;;;5.50;99.90;;;;;;5061803;28;20476;-76
2023/02/02 06:55:59;;;;;;;17.87;3.20;;;5.50;99.90;;;;;;5060005;28;20481;-75
2023/02/02 06:58:33;;;;;;;10.07;2.53;;;5.50;99.90;;;;;;5059774;28;20494;-76
2023/02/02 07:01:08;;;;;;;13.20;3.10;;;5.60;99.90;;;;;;5047768;28;21037;-76
2023/02/02 07:03:39;;;;;;;12.10;2.73;;;5.50;99.90;;;;;;5061672;28;20505;-75
2023/02/02 07:06:17;;;;;;;9.17;2.57;;;5.60;99.90;;;;;;5067436;28;20470;-76
2023/02/02 07:08:54;;;;;;;11.97;2.77;;;5.50;99.90;;;;;;5050209;28;21214;-75
2023/02/02 07:11:34;;;;;;;13.13;2.53;;;5.50;99.90;;;;;;5046157;28;20582;-75
2023/02/02 07:14:10;;;;;;;10.80;3.43;;;5.50;99.90;;;;;;5053306;28;20473;-79
2023/02/02 07:16:37;;;;;;;6.20;2.17;;;5.50;99.90;;;;;;5058554;28;20480;-76
2023/02/02 07:19:17;;;;;;;4.87;2.20;;;5.50;99.90;;;;;;5052804;28;20491;-78
2023/02/02 07:21:46;;;;;;;6.57;2.20;;;5.50;99.90;;;;;;5055817;28;20512;-76
2023/02/02 07:24:21;;;;;;;8.47;2.00;;;5.40;99.90;;;;;;5050631;28;20466;-78
2023/02/02 07:26:51;;;;;;;8.77;2.23;;;5.40;99.90;;;;;;5057426;28;20473;-79
2023/02/02 07:29:21;;;;;;;5.30;1.90;;;5.40;99.90;;;;;;5055410;28;20490;-77
2023/02/02 07:31:51;;;;;;;13.43;2.30;;;5.40;99.90;;;;;;5049732;28;20469;-76
2023/02/02 07:34:26;;;;;;;6.37;2.07;;;5.50;99.90;;;;;;5051839;28;20500;-76
2023/02/02 07:37:04;;;;;;;7.13;2.10;;;5.40;99.90;;;;;;5053847;28;20538;-78
2023/02/02 07:39:40;;;;;;;7.80;2.70;;;5.40;99.90;;;;;;5054295;28;20852;-77
2023/02/02 07:42:11;;;;;;;9.20;2.43;;;5.40;99.90;;;;;;5049139;28;20492;-77
2023/02/02 07:44:39;;;;;;;14.13;3.00;;;5.40;99.90;;;;;;5050790;28;20466;-77
2023/02/02 07:47:10;;;;;;;12.70;3.70;;;5.40;99.90;;;;;;5058380;28;20461;-77
2023/02/02 07:49:38;;;;;;;9.10;2.60;;;5.40;99.90;;;;;;5052529;28;20494;-77
2023/02/02 07:52:19;;;;;;;9.70;3.07;;;5.40;99.90;;;;;;5057175;28;20738;-77
2023/02/02 07:54:56;;;;;;;12.93;3.17;;;5.40;99.90;;;;;;5055228;28;20470;-77
2023/02/02 07:57:41;;;;;;;10.17;4.03;;;5.40;99.90;;;;;;5053238;28;20474;-77
2023/02/02 08:00:16;;;;;;;9.20;2.97;;;5.40;99.90;;;;;;5047509;28;20587;-78
2023/02/02 08:02:52;;;;;;;16.10;3.77;;;5.40;99.90;;;;;;5057608;28;20489;-77
2023/02/02 08:05:25;;;;;;;11.50;3.30;;;5.40;99.90;;;;;;5056381;28;20531;-78
2023/02/02 08:07:55;;;;;;;16.30;4.43;;;5.40;99.90;;;;;;5053558;28;20591;-78
2023/02/02 08:10:27;;;;;;;9.33;3.53;;;5.50;99.90;;;;;;5057559;28;20486;-77
2023/02/02 08:13:03;;;;;;;16.53;3.87;;;5.50;99.90;;;;;;5059668;28;20469;-78
2023/02/02 08:15:34;;;;;;;12.50;4.00;;;5.50;99.90;;;;;;5058406;28;20846;-76
2023/02/02 08:18:06;;;;;;;20.17;4.93;;;5.50;99.90;;;;;;5051222;28;20471;-77
2023/02/02 08:20:42;;;;;;;12.63;3.10;;;5.50;99.90;;;;;;5064027;22;20540;-76
2023/02/02 08:23:14;;;;;;;8.17;3.10;;;5.50;99.90;;;;;;5040222;28;20498;-75
2023/02/02 08:25:43;;;;;;;9.30;3.23;;;5.50;99.90;;;;;;5033728;28;20478;-73
2023/02/02 08:28:19;;;;;;;14.83;3.20;;;5.50;99.90;;;;;;5041408;28;20530;-73
2023/02/02 08:30:54;;;;;;;11.90;3.37;;;5.50;99.90;;;;;;5035422;28;20486;-73
2023/02/02 08:33:22;;;;;;;11.13;3.03;;;5.60;99.90;;;;;;5039410;28;20467;-74
2023/02/02 08:35:50;;;;;;;13.67;4.23;;;5.60;99.90;;;;;;5036936;28;20474;-74
2023/02/02 08:38:25;;;;;;;10.00;3.60;;;5.60;99.90;;;;;;5036888;28;20486;-77
2023/02/02 08:40:57;;;;;;;26.63;14.77;;;5.60;99.90;;;;;;5036892;28;20497;-77
2023/02/02 08:43:30;;;;;;;14.23;7.10;;;5.60;99.90;;;;;;5032900;28;20495;-74
2023/02/02 08:46:04;;;;;;;12.80;3.30;;;5.70;99.90;;;;;;5038387;28;21038;-74
2023/02/02 08:48:35;;;;;;;10.17;2.40;;;5.80;99.90;;;;;;5042066;28;20507;-74
2023/02/02 08:51:07;;;;;;;11.03;2.83;;;5.80;99.90;;;;;;5036888;28;20504;-74
2023/02/02 08:53:37;;;;;;;10.50;3.07;;;5.80;99.90;;;;;;5040681;28;20470;-74
2023/02/02 08:56:11;;;;;;;7.23;3.00;;;5.80;99.90;;;;;;5044818;28;20478;-73
2023/02/02 08:58:45;;;;;;;8.70;4.30;;;5.80;99.90;;;;;;5042752;28;20495;-73
2023/02/02 09:01:20;;;;;;;9.57;3.60;;;5.90;99.90;;;;;;5040368;28;20478;-74
2023/02/02 09:03:48;;;;;;;8.60;2.00;;;5.90;99.90;;;;;;5040521;28;20490;-74
2023/02/02 09:06:20;;;;;;;16.63;3.90;;;5.90;99.90;;;;;;5039895;28;21382;-73
2023/02/02 09:08:54;;;;;;;10.90;2.70;;;5.90;99.90;;;;;;5042879;28;20558;-75
2023/02/02 09:11:23;;;;;;;8.50;2.60;;;5.90;99.90;;;;;;5033732;28;20475;-74
2023/02/02 09:13:57;;;;;;;9.87;3.13;;;6.00;99.90;;;;;;5033826;28;20644;-74
2023/02/02 09:16:27;;;;;;;13.77;2.63;;;6.00;99.90;;;;;;5034763;28;21000;-74
2023/02/02 09:18:58;;;;;;;8.17;2.20;;;6.00;99.90;;;;;;5041597;28;21062;-74
2023/02/02 09:21:35;;;;;;;11.73;2.63;;;6.00;99.90;;;;;;5045347;28;20467;-75
2023/02/02 09:24:08;;;;;;;8.93;2.37;;;6.00;99.90;;;;;;5035417;28;20571;-73
2023/02/02 09:26:39;;;;;;;6.83;2.97;;;6.00;99.90;;;;;;5037434;28;20970;-76
2023/02/02 09:29:09;;;;;;;6.13;2.50;;;6.00;99.90;;;;;;5036113;28;20583;-73
2023/02/02 09:31:37;;;;;;;8.30;3.07;;;6.10;99.90;;;;;;5037487;28;20467;-73
2023/02/02 09:34:08;;;;;;;7.70;2.30;;;6.10;99.90;;;;;;5036323;28;20521;-73
2023/02/02 09:36:36;;;;;;;13.67;2.60;;;6.10;99.90;;;;;;5043739;28;20467;-73
2023/02/02 09:39:11;;;;;;;9.07;3.17;;;6.10;99.90;;;;;;5040288;28;20479;-74
2023/02/02 09:42:13;;;;;;;5.43;1.97;;;6.20;99.90;;;;;;5044886;28;20856;-74
2023/02/02 09:45:04;;;;;;;7.63;2.10;;;6.20;99.90;;;;;;5044310;28;20954;-73
2023/02/02 09:47:52;;;;;;;8.73;2.17;;;6.20;99.90;;;;;;5043510;28;20479;-74
2023/02/02 09:50:53;;;;;;;7.23;2.20;;;6.20;99.90;;;;;;5036867;28;20537;-74
2023/02/02 09:53:39;;;;;;;8.37;2.47;;;6.30;99.90;;;;;;5034952;28;20470;-74
2023/02/02 09:56:28;;;;;;;8.00;2.83;;;6.30;99.90;;;;;;5046884;28;21064;-74
2023/02/02 09:59:00;;;;;;;9.17;1.80;;;6.30;99.90;;;;;;5041890;28;20490;-74
2023/02/02 10:01:52;;;;;;;5.50;2.30;;;6.30;99.90;;;;;;5042222;28;20505;-74
2023/02/02 10:04:28;;;;;;;5.80;2.17;;;6.40;99.90;;;;;;5047660;28;20839;-75
2023/02/02 10:07:06;;;;;;;5.27;2.10;;;6.40;99.90;;;;;;5048264;28;20576;-73
2023/02/02 10:09:42;;;;;;;5.63;2.00;;;6.50;99.90;;;;;;5046326;28;20493;-74
2023/02/02 10:12:39;;;;;;;11.50;2.73;;;6.50;99.90;;;;;;5038626;28;20470;-73
2023/02/02 10:15:22;;;;;;;10.80;2.60;;;6.60;99.90;;;;;;5046082;28;20478;-74
2023/02/02 10:17:59;;;;;;;5.10;1.80;;;6.60;99.90;;;;;;5039772;28;20471;-73
2023/02/02 10:20:38;;;;;;;7.27;1.73;;;6.70;99.90;;;;;;5042563;28;20862;-73
2023/02/02 10:23:14;;;;;;;6.60;2.20;;;6.70;99.90;;;;;;5048743;28;20850;-74
2023/02/02 10:25:56;;;;;;;8.37;2.23;;;6.80;99.90;;;;;;5043461;28;20470;-74
2023/02/02 10:28:52;;;;;;;6.33;1.90;;;6.90;99.90;;;;;;5043405;28;20492;-75
2023/02/02 10:31:45;;;;;;;6.40;1.90;;;6.90;99.90;;;;;;5037092;28;20466;-74
2023/02/02 10:34:22;;;;;;;8.57;1.80;;;7.00;99.90;;;;;;5048216;28;21160;-75
2023/02/02 10:37:09;;;;;;;5.90;1.80;;;7.10;99.90;;;;;;5044381;28;20483;-74
2023/02/02 10:39:55;;;;;;;7.97;1.70;;;7.20;99.90;;;;;;5047792;28;20892;-75
2023/02/02 10:42:44;;;;;;;6.17;1.70;;;7.30;99.90;;;;;;5046586;28;20549;-75
2023/02/02 10:45:17;;;;;;;6.20;1.90;;;7.30;99.90;;;;;;5040737;28;20468;-75
2023/02/02 10:47:47;;;;;;;6.80;2.00;;;7.30;99.90;;;;;;5045738;28;20532;-75
2023/02/02 10:50:21;;;;;;;7.17;2.00;;;7.30;99.90;;;;;;5044898;28;20608;-75
2023/02/02 10:53:04;;;;;;;3.93;2.00;;;7.40;99.90;;;;;;5049969;28;20454;-72
2023/02/02 10:55:48;;;;;;;5.30;2.37;;;7.50;99.90;;;;;;5040042;28;20493;-73
2023/02/02 10:58:24;;;;;;;6.90;1.80;;;7.60;99.90;;;;;;5045012;28;20454;-72
2023/02/02 11:00:59;;;;;;;7.30;1.97;;;7.60;99.90;;;;;;5046528;28;20518;-73
2023/02/02 11:03:32;;;;;;;4.90;2.10;;;7.70;99.90;;;;;;5049498;28;20811;-73
2023/02/02 11:08:58;;;;;;;10.90;2.90;;;7.80;99.90;;;;;;5044791;28;20558;-73
2023/02/02 11:11:29;;;;;;;6.67;1.80;;;7.80;99.90;;;;;;5044175;28;20473;-74
2023/02/02 11:14:05;;;;;;;5.23;2.00;;;7.90;99.90;;;;;;5042632;28;20468;-73
2023/02/02 11:16:33;;;;;;;7.90;2.27;;;8.00;99.90;;;;;;5042466;28;20497;-72
2023/02/02 11:19:28;;;;;;;7.17;2.30;;;8.10;99.90;;;;;;5047714;28;20997;-73
2023/02/02 11:22:04;;;;;;;5.83;2.20;;;8.30;99.90;;;;;;5039254;28;20478;-72
2023/02/02 11:24:45;;;;;;;4.57;1.97;;;8.30;99.90;;;;;;5045812;28;20494;-73
2023/02/02 11:27:17;;;;;;;5.00;1.73;;;8.30;99.90;;;;;;5047152;28;20474;-72
2023/02/02 11:29:55;;;;;;;7.70;2.43;;;8.30;99.90;;;;;;5044772;28;20490;-73
2023/02/02 11:32:33;;;;;;;5.33;1.93;;;8.40;99.90;;;;;;5043421;28;20966;-73
2023/02/02 11:35:32;;;;;;;3.97;1.90;;;8.40;99.90;;;;;;5044724;28;20849;-73
2023/02/02 11:38:16;;;;;;;4.90;1.93;;;8.30;99.90;;;;;;5012857;28;20474;-72
2023/02/02 11:40:52;;;;;;;9.10;2.27;;;8.30;99.90;;;;;;5040944;28;20501;-73
2023/02/02 11:43:24;;;;;;;6.73;2.30;;;8.30;99.90;;;;;;5040789;28;20465;-73
2023/02/02 11:45:57;;;;;;;5.30;2.40;;;8.20;99.90;;;;;;5038313;28;20985;-73
2023/02/02 11:48:34;;;;;;;3.87;1.70;;;8.30;99.90;;;;;;5039107;28;20474;-73
2023/02/02 11:51:07;;;;;;;4.80;1.50;;;8.40;99.90;;;;;;5044148;28;20485;-72
2023/02/02 11:53:48;;;;;;;5.13;1.87;;;8.60;99.90;;;;;;5046260;28;20471;-73
2023/02/02 11:56:24;;;;;;;7.00;1.73;;;8.70;99.90;;;;;;5040036;28;20474;-75
2023/02/02 11:58:57;;;;;;;7.70;2.30;;;8.80;99.90;;;;;;5042741;28;21016;-73
2023/02/02 12:01:28;;;;;;;4.10;1.93;;;9.10;99.90;;;;;;5046442;28;20471;-74
2023/02/02 12:04:01;;;;;;;3.67;1.77;;;9.30;99.90;;;;;;5039533;28;20482;-73
2023/02/02 12:06:43;;;;;;;4.53;1.60;;;9.50;99.90;;;;;;5047392;28;20506;-73
2023/02/02 12:09:16;;;;;;;4.63;1.80;;;9.60;99.90;;;;;;5042212;28;20512;-73
2023/02/02 12:12:01;;;;;;;5.67;1.60;;;9.50;99.90;;;;;;5043529;28;20470;-73
2023/02/02 12:14:43;;;;;;;2.30;1.20;;;9.30;99.90;;;;;;5035073;28;20482;-73
2023/02/02 12:17:25;;;;;;;2.97;1.23;;;9.10;99.90;;;;;;5045158;28;21000;-73
2023/02/02 12:20:21;;;;;;;4.63;1.57;;;9.80;99.90;;;;;;5044204;28;20486;-72
2023/02/02 12:23:20;;;;;;;3.70;1.40;;;12.20;99.90;;;;;;5041218;28;20597;-73
2023/02/02 12:26:14;;;;;;;3.70;1.13;;;14.50;99.90;;;;;;5049796;28;20466;-72
2023/02/02 12:28:59;;;;;;;2.70;1.30;;;15.00;99.90;;;;;;5050079;28;20478;-74
2023/02/02 12:31:38;;;;;;;3.50;1.80;;;16.40;99.90;;;;;;5042783;28;20467;-74
2023/02/02 12:34:14;;;;;;;4.67;1.37;;;17.40;98.40;;;;;;5046627;28;20470;-74
2023/02/02 12:36:55;;;;;;;6.07;1.70;;;17.00;96.90;;;;;;5047214;28;20481;-74
2023/02/02 12:39:38;;;;;;;4.83;1.70;;;15.80;99.90;;;;;;5046029;28;20482;-74
2023/02/02 12:42:36;;;;;;;3.47;1.30;;;15.50;99.90;;;;;;5047982;28;21236;-73
2023/02/02 12:45:24;;;;;;;2.60;1.30;;;15.50;99.90;;;;;;5039593;28;21097;-77
2023/02/02 12:48:03;;;;;;;2.43;1.30;;;16.70;99.90;;;;;;5041861;28;20474;-73
2023/02/02 12:50:42;;;;;;;4.23;1.40;;;15.60;97.90;;;;;;5043822;28;20504;-73
2023/02/02 12:53:28;;;;;;;3.20;1.20;;;14.10;99.90;;;;;;5047069;28;20473;-74
2023/02/02 12:56:13;;;;;;;3.10;1.40;;;12.90;99.90;;;;;;5048442;28;20998;-74
2023/02/02 12:58:51;;;;;;;4.07;1.87;;;12.00;99.90;;;;;;5046417;28;20484;-74
2023/02/02 13:01:41;;;;;;;2.57;1.30;;;11.30;99.90;;;;;;5038089;28;20508;-76
2023/02/02 13:04:32;;;;;;;3.07;1.63;;;10.80;99.90;;;;;;5046992;28;20482;-74
2023/02/02 13:07:36;;;;;;;2.60;1.50;;;10.40;99.90;;;;;;5041587;28;20546;-74
2023/02/02 13:10:20;;;;;;;6.43;1.70;;;10.10;99.90;;;;;;5019125;28;20485;-74
2023/02/02 13:12:58;;;;;;;4.40;1.50;;;9.90;99.90;;;;;;5044296;28;20474;-73
2023/02/02 13:15:37;;;;;;;4.83;1.60;;;9.80;99.90;;;;;;5043127;28;20502;-74
2023/02/02 13:18:16;;;;;;;6.10;1.90;;;9.80;99.90;;;;;;5040426;28;20478;-74
2023/02/02 13:20:55;;;;;;;1.57;1.10;;;9.70;99.90;;;;;;5044293;28;20498;-74
2023/02/02 13:23:28;;;;;;;2.70;1.27;;;10.00;99.90;;;;;;5045389;28;20482;-74
2023/02/02 13:26:02;;;;;;;4.83;1.30;;;9.90;99.90;;;;;;5045545;28;20521;-74
2023/02/02 13:28:43;;;;;;;3.27;1.40;;;10.00;99.90;;;;;;5046296;28;20486;-74
2023/02/02 13:31:19;;;;;;;2.70;1.20;;;10.10;99.90;;;;;;5045411;28;20608;-74
2023/02/02 13:33:56;;;;;;;3.47;1.40;;;10.20;99.90;;;;;;5050432;28;20535;-73
2023/02/02 13:36:28;;;;;;;4.97;2.00;;;10.30;99.90;;;;;;5050283;28;20992;-73
2023/02/02 13:39:01;;;;;;;4.00;1.70;;;10.40;99.90;;;;;;5045506;28;20551;-73
2023/02/02 13:41:44;;;;;;;3.37;2.30;;;10.50;99.90;;;;;;5048592;28;20466;-74
2023/02/02 13:44:26;;;;;;;3.17;2.23;;;10.60;99.90;;;;;;5039677;28;20478;-76
2023/02/02 13:47:13;;;;;;;4.03;1.57;;;10.60;99.90;;;;;;5044206;28;20474;-73
2023/02/02 13:49:49;;;;;;;3.03;1.53;;;10.70;99.90;;;;;;5046830;28;20482;-73